Time;durP1;ratioP1;P1;durP2;ratioP2;P2;SDS_P1;SDS_P2;PMS_P1;PMS_P2;Temp;Humidity;BMP_temperature;BMP_pressure;BME280_temperature;BME280_humidity;BME280_pressure;Samples;Min_cycle;Max_cycle;Signal;HPM_P1;HPM_P2
2022/06/26 00:01:48;;;;;;;19.92;11.75;;;26.30;1.00;;;;;;5155759;27;20018;-55
2022/06/26 00:04:13;;;;;;;16.42;8.90;;;26.40;1.00;;;;;;5147691;27;20016;-55
2022/06/26 00:06:39;;;;;;;21.15;15.07;;;26.30;1.00;;;;;;5154929;27;20072;-53
2022/06/26 00:09:05;;;;;;;8.00;5.35;;;26.40;1.00;;;;;;5155822;27;20080;-56
2022/06/26 00:11:31;;;;;;;11.80;6.25;;;26.40;1.00;;;;;;5147318;27;20107;-55
2022/06/26 00:13:56;;;;;;;9.55;6.03;;;26.40;1.00;;;;;;5155324;27;20014;-55
2022/06/26 00:16:22;;;;;;;12.63;5.35;;;26.40;1.00;;;;;;5154545;27;20106;-56
2022/06/26 00:18:48;;;;;;;18.48;9.50;;;26.30;1.00;;;;;;5140158;27;20465;-55
2022/06/26 00:21:14;;;;;;;12.13;5.68;;;26.50;1.00;;;;;;5153023;27;20109;-55
2022/06/26 00:27:03;;;;;;;12.52;9.00;;;26.40;1.00;;;;;;5150201;27;20041;-57
2022/06/26 00:29:30;;;;;;;15.10;9.93;;;26.30;1.00;;;;;;5141783;27;20047;-55
2022/06/26 00:31:56;;;;;;;13.40;9.00;;;26.40;1.00;;;;;;5147413;27;20067;-55
2022/06/26 00:34:21;;;;;;;13.15;9.90;;;26.20;1.00;;;;;;5145595;27;20040;-54
2022/06/26 00:36:48;;;;;;;22.15;13.52;;;26.20;1.00;;;;;;5155229;27;20023;-53
2022/06/26 00:39:13;;;;;;;22.00;14.50;;;26.40;1.00;;;;;;5150922;27;20043;-55
2022/06/26 00:41:39;;;;;;;12.15;5.60;;;26.10;1.00;;;;;;5142708;27;20074;-55
2022/06/26 00:44:19;;;;;;;10.50;4.88;;;26.30;1.00;;;;;;5151387;27;20030;-55
2022/06/26 00:46:45;;;;;;;10.32;5.65;;;26.20;1.00;;;;;;5134281;27;20079;-56
2022/06/26 00:49:12;;;;;;;8.65;5.60;;;26.10;1.00;;;;;;5146743;27;20018;-56
2022/06/26 00:51:50;;;;;;;21.60;12.77;;;26.20;1.00;;;;;;5153774;27;20038;-55
2022/06/26 00:54:16;;;;;;;5.40;3.92;;;26.10;1.00;;;;;;5149576;27;20023;-55
2022/06/26 00:56:41;;;;;;;4.13;3.17;;;26.20;1.00;;;;;;5153597;27;20034;-55
2022/06/26 00:59:07;;;;;;;9.43;5.07;;;26.10;1.00;;;;;;5153462;27;20019;-55
2022/06/26 01:01:35;;;;;;;8.65;5.30;;;26.10;1.00;;;;;;5154395;27;20125;-55
2022/06/26 01:04:05;;;;;;;7.90;2.58;;;26.10;1.00;;;;;;5150219;27;20038;-56
2022/06/26 01:06:31;;;;;;;11.80;3.03;;;26.10;1.00;;;;;;5140205;27;20079;-55
2022/06/26 01:08:57;;;;;;;7.07;2.45;;;26.10;1.00;;;;;;5150462;27;20089;-52
2022/06/26 01:11:27;;;;;;;6.57;2.45;;;26.20;1.00;;;;;;5140347;27;20066;-56
2022/06/26 01:13:55;;;;;;;8.82;3.35;;;26.10;1.00;;;;;;5148899;27;20051;-56
2022/06/26 01:16:23;;;;;;;5.13;2.20;;;26.20;1.00;;;;;;5153580;27;20027;-56
2022/06/26 01:18:51;;;;;;;6.20;2.63;;;26.00;1.00;;;;;;5149637;27;20019;-55
2022/06/26 01:21:18;;;;;;;7.15;2.35;;;26.20;1.00;;;;;;5153093;27;20036;-54
2022/06/26 01:23:44;;;;;;;8.80;2.60;;;26.00;1.00;;;;;;5145731;27;20064;-57
2022/06/26 01:26:10;;;;;;;4.47;2.67;;;26.00;1.00;;;;;;5152209;27;20117;-54
2022/06/26 01:28:35;;;;;;;9.15;2.20;;;26.00;1.00;;;;;;5153544;27;20058;-54
2022/06/26 01:31:01;;;;;;;6.10;2.33;;;26.00;1.00;;;;;;5152221;27;20019;-53
2022/06/26 01:33:27;;;;;;;7.18;2.08;;;25.90;1.00;;;;;;5152178;27;20055;-57
2022/06/26 01:35:53;;;;;;;6.07;2.10;;;25.90;1.00;;;;;;5152203;27;20409;-56
2022/06/26 01:38:21;;;;;;;7.50;2.63;;;26.10;1.00;;;;;;5153131;27;20340;-55
2022/06/26 01:40:49;;;;;;;5.57;2.33;;;26.00;1.00;;;;;;5143918;27;20031;-57
2022/06/26 01:43:17;;;;;;;4.28;2.58;;;25.90;1.00;;;;;;5147185;27;20418;-55
2022/06/26 01:45:51;;;;;;;5.80;2.03;;;25.90;1.00;;;;;;5151989;27;20086;-56
2022/06/26 01:48:17;;;;;;;;;;;26.00;1.00;;;;;;5136993;27;20092;-55
2022/06/26 01:50:44;;;;;;;3.42;2.03;;;25.90;1.00;;;;;;5143291;27;20287;-56
2022/06/26 01:53:10;;;;;;;4.47;1.92;;;25.90;1.00;;;;;;5141442;27;20083;-55
2022/06/26 01:55:36;;;;;;;2.47;2.00;;;25.90;1.00;;;;;;5150253;27;20019;-56
2022/06/26 01:58:02;;;;;;;3.72;2.13;;;25.90;1.00;;;;;;5143939;27;20039;-55
2022/06/26 02:00:32;;;;;;;3.67;2.10;;;25.90;1.00;;;;;;5143809;27;20089;-56
2022/06/26 02:02:58;;;;;;;4.88;2.25;;;25.90;1.00;;;;;;5152448;27;20050;-52
2022/06/26 02:05:24;;;;;;;5.75;2.08;;;25.90;1.00;;;;;;5152438;27;20075;-55
2022/06/26 02:07:50;;;;;;;3.85;2.22;;;25.90;1.00;;;;;;5144337;27;20035;-54
2022/06/26 02:15:51;;;;;;;3.03;1.83;;;26.00;1.00;;;;;;5151091;27;20080;-56
2022/06/26 02:18:16;;;;;;;3.20;1.55;;;25.90;1.00;;;;;;5153459;27;20091;-56
2022/06/26 02:20:43;;;;;;;4.68;1.77;;;25.80;1.00;;;;;;5152188;27;20518;-57
2022/06/26 02:23:10;;;;;;;3.38;1.98;;;26.00;1.00;;;;;;5153421;27;20049;-56
2022/06/26 02:25:35;;;;;;;2.30;1.77;;;25.80;1.00;;;;;;5152075;27;20075;-56
2022/06/26 02:28:01;;;;;;;5.82;2.50;;;25.90;1.00;;;;;;5153421;27;20035;-56
2022/06/26 02:30:27;;;;;;;5.82;2.22;;;25.80;1.00;;;;;;5141861;27;20034;-56
2022/06/26 02:32:52;;;;;;;7.55;1.75;;;25.80;1.00;;;;;;5146985;27;20058;-57
2022/06/26 02:35:18;;;;;;;5.20;2.22;;;25.80;1.00;;;;;;5151283;27;20026;-54
2022/06/26 02:37:44;;;;;;;6.15;2.20;;;25.80;1.00;;;;;;5144631;27;20031;-54
2022/06/26 02:40:10;;;;;;;2.97;2.38;;;25.80;1.00;;;;;;5145655;27;20484;-55
2022/06/26 02:42:36;;;;;;;5.38;1.83;;;25.60;1.00;;;;;;5144809;27;20046;-56
2022/06/26 02:45:02;;;;;;;2.67;1.90;;;25.70;1.00;;;;;;5149699;27;20073;-56
2022/06/26 02:47:28;;;;;;;5.35;2.20;;;25.80;1.00;;;;;;5150626;27;20146;-54
2022/06/26 02:49:53;;;;;;;4.53;2.47;;;25.70;1.00;;;;;;5156114;27;20492;-54
2022/06/26 02:52:19;;;;;;;3.10;2.30;;;25.60;1.00;;;;;;5156766;27;20023;-54
2022/06/26 02:54:44;;;;;;;4.53;2.60;;;25.80;1.00;;;;;;5156948;27;20026;-56
2022/06/26 02:57:10;;;;;;;3.83;2.88;;;25.60;1.00;;;;;;5155976;27;20058;-54
2022/06/26 02:59:36;;;;;;;6.15;2.50;;;25.60;1.00;;;;;;5156956;27;20026;-51
2022/06/26 03:02:01;;;;;;;3.05;2.08;;;25.60;1.00;;;;;;5155625;27;20039;-52
2022/06/26 03:04:27;;;;;;;3.50;2.20;;;25.60;1.00;;;;;;5156673;27;20049;-53
2022/06/26 03:06:53;;;;;;;3.38;2.20;;;25.60;1.00;;;;;;5155857;27;20038;-54
2022/06/26 03:09:18;;;;;;;4.93;2.47;;;25.50;1.00;;;;;;5156560;27;20054;-54
2022/06/26 03:11:44;;;;;;;3.00;2.17;;;25.60;1.00;;;;;;5153448;27;20043;-54
2022/06/26 03:14:09;;;;;;;4.75;2.30;;;25.60;1.00;;;;;;5154375;27;20030;-55
2022/06/26 03:16:35;;;;;;;7.32;2.58;;;25.70;1.00;;;;;;5150577;27;20062;-54
2022/06/26 03:19:02;;;;;;;6.95;3.05;;;25.50;1.00;;;;;;5156528;27;20087;-55
2022/06/26 03:21:27;;;;;;;5.18;2.40;;;25.70;1.00;;;;;;5149457;27;20113;-53
2022/06/26 03:24:02;;;;;;;4.75;2.20;;;25.50;1.00;;;;;;5147749;27;20526;-51
2022/06/26 03:26:38;;;;;;;4.15;2.28;;;25.50;1.00;;;;;;5148149;27;20468;-56
2022/06/26 03:29:09;;;;;;;6.13;2.67;;;25.50;1.00;;;;;;5156313;27;20114;-53
2022/06/26 03:31:35;;;;;;;4.13;2.28;;;25.40;1.00;;;;;;5155229;27;20031;-52
2022/06/26 03:34:01;;;;;;;5.07;2.47;;;25.60;1.00;;;;;;5156039;27;20094;-54
2022/06/26 03:36:27;;;;;;;4.60;2.40;;;25.60;1.00;;;;;;5146436;27;20106;-54
2022/06/26 03:38:54;;;;;;;4.53;2.47;;;25.60;1.00;;;;;;5144935;27;20092;-52
2022/06/26 03:41:20;;;;;;;4.80;2.50;;;25.40;1.00;;;;;;5150257;27;20113;-52
2022/06/26 03:43:46;;;;;;;4.57;2.70;;;25.40;1.00;;;;;;5155356;27;20097;-56
2022/06/26 03:46:12;;;;;;;7.47;2.58;;;25.40;1.00;;;;;;5154953;27;20059;-52
2022/06/26 03:48:38;;;;;;;6.43;2.33;;;25.40;1.00;;;;;;5155512;27;20030;-54
2022/06/26 03:51:05;;;;;;;4.13;2.35;;;25.40;1.00;;;;;;5154054;27;20031;-51
2022/06/26 03:53:31;;;;;;;7.10;2.85;;;25.40;1.00;;;;;;5155698;27;20106;-51
2022/06/26 03:55:57;;;;;;;5.85;3.17;;;25.40;1.00;;;;;;5147904;27;20345;-54
2022/06/26 03:58:23;;;;;;;5.30;2.28;;;25.40;1.00;;;;;;5149669;27;20154;-56
2022/06/26 04:00:49;;;;;;;6.53;3.08;;;25.50;1.00;;;;;;5154861;27;20038;-53
2022/06/26 04:03:15;;;;;;;4.03;2.60;;;25.40;1.00;;;;;;5155723;27;20027;-54
2022/06/26 04:05:41;;;;;;;5.10;2.60;;;25.50;1.00;;;;;;5150215;27;20027;-55
2022/06/26 04:08:08;;;;;;;4.18;2.13;;;25.30;1.00;;;;;;5146376;27;20034;-51
2022/06/26 04:10:34;;;;;;;5.93;2.95;;;25.40;1.00;;;;;;5154238;27;20031;-51
2022/06/26 04:13:03;;;;;;;8.15;3.08;;;25.40;1.00;;;;;;5153680;27;20038;-56
2022/06/26 04:15:30;;;;;;;5.43;2.78;;;25.50;1.00;;;;;;5153616;27;20019;-52
2022/06/26 04:17:55;;;;;;;5.93;2.70;;;25.40;1.00;;;;;;5138509;27;20470;-50
2022/06/26 04:20:22;;;;;;;5.80;2.78;;;25.40;1.00;;;;;;5154659;27;20109;-51
2022/06/26 04:23:13;;;;;;;4.78;2.78;;;25.50;1.00;;;;;;5149085;27;20540;-50
2022/06/26 04:25:40;;;;;;;4.57;2.97;;;25.30;1.00;;;;;;5135759;27;20400;-52
2022/06/26 04:28:07;;;;;;;5.25;2.80;;;25.60;1.00;;;;;;5153600;27;20566;-52
2022/06/26 04:30:33;;;;;;;8.88;4.45;;;25.30;1.00;;;;;;5155011;27;20169;-52
2022/06/26 04:32:58;;;;;;;6.70;2.70;;;25.50;1.00;;;;;;5144292;27;20069;-51
2022/06/26 04:35:24;;;;;;;9.32;4.07;;;25.60;1.00;;;;;;5148174;27;20388;-53
2022/06/26 04:37:50;;;;;;;8.95;3.60;;;25.40;1.00;;;;;;5151669;27;20037;-50
2022/06/26 04:40:16;;;;;;;4.57;3.05;;;25.30;1.00;;;;;;5141596;27;20027;-50
2022/06/26 04:42:43;;;;;;;4.78;3.28;;;25.40;1.00;;;;;;5133145;27;20516;-50
2022/06/26 04:45:10;;;;;;;4.88;3.22;;;25.30;1.00;;;;;;5133921;27;20027;-52
2022/06/26 04:47:35;;;;;;;4.85;2.83;;;25.40;1.00;;;;;;5151146;27;20468;-51
2022/06/26 04:50:02;;;;;;;5.78;3.35;;;25.20;1.00;;;;;;5155017;27;20125;-52
2022/06/26 04:52:28;;;;;;;5.97;3.13;;;25.40;1.00;;;;;;5153618;27;20030;-51
2022/06/26 04:54:53;;;;;;;6.88;3.20;;;25.40;1.00;;;;;;5153341;27;20436;-54
2022/06/26 04:57:19;;;;;;;8.38;3.50;;;25.40;1.00;;;;;;5149731;27;20026;-55
2022/06/26 04:59:45;;;;;;;7.97;3.63;;;25.30;1.00;;;;;;5146219;27;20017;-56
2022/06/26 05:02:17;;;;;;;9.98;3.63;;;25.30;1.00;;;;;;5133827;27;20047;-55
2022/06/26 05:04:42;;;;;;;8.10;3.25;;;25.20;1.00;;;;;;5147497;27;20029;-52
2022/06/26 05:07:08;;;;;;;6.97;3.58;;;25.40;1.00;;;;;;5154522;27;20030;-53
2022/06/26 05:09:34;;;;;;;6.05;3.28;;;25.40;1.00;;;;;;5142204;27;20031;-55
2022/06/26 05:11:59;;;;;;;7.13;3.90;;;25.50;1.00;;;;;;5151747;27;20049;-55
2022/06/26 05:14:25;;;;;;;6.22;3.30;;;25.50;1.00;;;;;;5153016;27;20383;-54
2022/06/26 05:16:51;;;;;;;7.80;3.22;;;25.50;1.00;;;;;;5154493;27;20071;-54
2022/06/26 05:19:17;;;;;;;6.18;2.85;;;25.40;1.00;;;;;;5153174;27;20510;-55
2022/06/26 05:21:43;;;;;;;6.38;3.17;;;25.40;1.00;;;;;;5154191;27;20018;-53
2022/06/26 05:24:08;;;;;;;4.25;2.38;;;25.60;1.00;;;;;;5145620;27;20137;-52
2022/06/26 05:26:34;;;;;;;8.35;3.33;;;25.40;1.00;;;;;;5153378;27;20525;-56
2022/06/26 05:29:00;;;;;;;6.90;3.38;;;25.50;1.00;;;;;;5152941;27;20018;-54
2022/06/26 05:31:26;;;;;;;4.38;2.22;;;25.50;1.00;;;;;;5154248;27;20026;-54
2022/06/26 05:33:51;;;;;;;8.00;3.05;;;25.60;1.00;;;;;;5151558;27;20257;-55
2022/06/26 05:36:17;;;;;;;6.35;3.35;;;25.60;1.00;;;;;;5153545;27;20037;-54
2022/06/26 05:38:43;;;;;;;7.00;3.08;;;25.60;1.00;;;;;;5145843;27;20023;-52
2022/06/26 05:41:09;;;;;;;9.45;3.25;;;25.60;1.00;;;;;;5150442;27;20050;-52
2022/06/26 05:43:35;;;;;;;7.38;3.13;;;25.70;1.00;;;;;;5151522;27;20460;-53
2022/06/26 05:46:01;;;;;;;7.30;3.08;;;25.60;1.00;;;;;;5153780;27;20032;-53
2022/06/26 05:48:27;;;;;;;6.00;2.70;;;25.60;1.00;;;;;;5144345;27;20019;-52
2022/06/26 05:50:53;;;;;;;4.53;2.53;;;25.70;1.00;;;;;;5145566;27;20487;-51
2022/06/26 05:53:19;;;;;;;4.22;2.70;;;25.70;1.00;;;;;;5145631;27;20064;-53
2022/06/26 05:55:45;;;;;;;9.40;3.50;;;25.90;1.00;;;;;;5153580;27;20029;-52
2022/06/26 05:58:11;;;;;;;4.43;2.80;;;25.70;1.00;;;;;;5152545;27;20030;-50
2022/06/26 06:00:38;;;;;;;4.22;2.80;;;25.90;1.00;;;;;;5151121;27;20059;-53
2022/06/26 06:03:05;;;;;;;4.88;2.63;;;25.90;1.00;;;;;;5149709;27;20079;-53
2022/06/26 06:05:31;;;;;;;6.88;2.92;;;25.70;1.00;;;;;;5153168;27;20098;-50
2022/06/26 06:07:57;;;;;;;3.15;2.33;;;25.80;1.00;;;;;;5152898;27;20042;-54
2022/06/26 06:10:24;;;;;;;4.32;2.90;;;25.80;1.00;;;;;;5148653;27;20043;-51
2022/06/26 06:12:51;;;;;;;5.00;3.67;;;25.80;1.00;;;;;;5153381;27;20409;-52
2022/06/26 06:15:17;;;;;;;6.20;2.88;;;25.90;1.00;;;;;;5152044;27;20388;-54
2022/06/26 06:17:44;;;;;;;6.75;2.80;;;25.90;1.00;;;;;;5153181;27;20481;-51
2022/06/26 06:20:13;;;;;;;4.38;2.65;;;26.00;1.00;;;;;;5150537;27;20026;-51
2022/06/26 06:22:42;;;;;;;4.50;2.88;;;26.00;1.00;;;;;;5153346;27;20023;-50
2022/06/26 06:25:08;;;;;;;6.63;3.25;;;26.10;1.00;;;;;;5147881;27;20029;-54
2022/06/26 06:27:35;;;;;;;5.85;3.08;;;26.00;1.00;;;;;;5149341;27;20069;-54
2022/06/26 06:30:02;;;;;;;5.88;2.80;;;26.20;1.00;;;;;;5148496;27;20404;-52
2022/06/26 06:32:28;;;;;;;7.93;2.83;;;26.10;1.00;;;;;;5147220;27;20027;-54
2022/06/26 06:34:54;;;;;;;5.68;3.38;;;26.10;1.00;;;;;;5146175;27;20034;-54
2022/06/26 06:37:19;;;;;;;4.97;2.85;;;26.30;1.00;;;;;;5151376;27;20022;-50
2022/06/26 06:39:46;;;;;;;7.35;3.17;;;26.30;1.00;;;;;;5152300;27;20031;-54
2022/06/26 06:42:11;;;;;;;4.60;2.95;;;26.20;1.00;;;;;;5153101;27;20487;-52
2022/06/26 06:44:37;;;;;;;5.43;3.00;;;26.20;1.00;;;;;;5138014;27;20031;-56
2022/06/26 06:47:03;;;;;;;6.47;3.45;;;26.30;1.00;;;;;;5132525;28;20038;-57
2022/06/26 06:49:29;;;;;;;5.65;3.20;;;26.30;1.00;;;;;;5143526;27;20076;-57
2022/06/26 06:51:55;;;;;;;7.00;3.22;;;26.30;1.00;;;;;;5153004;27;20019;-53
2022/06/26 06:54:20;;;;;;;6.32;3.00;;;26.40;1.00;;;;;;5151946;27;20392;-53
2022/06/26 06:56:46;;;;;;;4.45;3.03;;;26.40;1.00;;;;;;5152704;27;20471;-57
2022/06/26 06:59:12;;;;;;;5.82;2.65;;;26.40;1.00;;;;;;5151984;27;20428;-55
2022/06/26 07:01:38;;;;;;;5.70;3.00;;;26.60;1.00;;;;;;5153146;27;20050;-56
2022/06/26 07:04:04;;;;;;;5.72;3.22;;;26.50;1.00;;;;;;5151932;27;20157;-55
2022/06/26 07:06:29;;;;;;;5.18;2.75;;;26.50;1.00;;;;;;5153215;27;20030;-56
2022/06/26 07:08:55;;;;;;;5.47;3.10;;;26.50;1.00;;;;;;5152185;27;20027;-56
2022/06/26 07:11:21;;;;;;;6.60;3.30;;;26.60;1.00;;;;;;5151520;27;20049;-56
2022/06/26 07:13:46;;;;;;;8.95;3.20;;;26.50;1.00;;;;;;5147068;27;20128;-56
2022/06/26 07:16:13;;;;;;;7.13;3.03;;;26.60;1.00;;;;;;5132585;28;20105;-57
2022/06/26 07:18:39;;;;;;;3.90;2.75;;;26.60;1.00;;;;;;5134150;27;20035;-56
2022/06/26 07:21:05;;;;;;;7.10;3.25;;;26.70;1.00;;;;;;5153000;27;20484;-56
2022/06/26 07:23:31;;;;;;;8.60;2.85;;;26.60;1.00;;;;;;5151742;27;20019;-55
2022/06/26 07:25:56;;;;;;;3.88;2.58;;;26.80;1.00;;;;;;5151265;27;20046;-56
2022/06/26 07:28:23;;;;;;;8.02;3.15;;;26.90;1.00;;;;;;5150442;27;20460;-55
2022/06/26 07:30:48;;;;;;;4.15;2.70;;;26.80;1.00;;;;;;5144206;27;20672;-57
2022/06/26 07:35:59;;;;;;;;;;;26.80;1.00;;;;;;5154247;27;20045;-57
2022/06/26 07:38:24;;;;;;;6.00;2.90;;;26.90;1.00;;;;;;5156657;27;20352;-55
2022/06/26 07:40:51;;;;;;;5.65;2.55;;;26.90;1.00;;;;;;5154501;27;20388;-56
2022/06/26 07:43:16;;;;;;;3.50;2.70;;;26.90;1.00;;;;;;5156320;27;20551;-55
2022/06/26 07:45:42;;;;;;;4.68;2.65;;;27.10;1.00;;;;;;5155324;27;20114;-56
2022/06/26 07:48:08;;;;;;;4.65;2.80;;;27.10;1.00;;;;;;5155037;27;20027;-55
2022/06/26 07:50:33;;;;;;;2.80;2.60;;;27.20;1.00;;;;;;5148879;27;20050;-55
2022/06/26 07:52:59;;;;;;;5.43;3.00;;;27.10;1.00;;;;;;5135454;27;20436;-57
2022/06/26 07:55:25;;;;;;;4.90;3.00;;;27.10;1.00;;;;;;5146032;27;20037;-55
2022/06/26 07:57:50;;;;;;;5.28;2.70;;;27.20;1.00;;;;;;5140325;27;20023;-56
2022/06/26 08:00:16;;;;;;;5.13;2.92;;;27.10;1.00;;;;;;5144371;27;20057;-55
2022/06/26 08:02:42;;;;;;;5.32;2.30;;;27.30;1.00;;;;;;5156228;27;20068;-55
2022/06/26 08:05:08;;;;;;;5.22;3.05;;;27.20;1.00;;;;;;5154940;27;20057;-57
2022/06/26 08:07:33;;;;;;;5.72;3.03;;;27.30;1.00;;;;;;5156025;27;20059;-56
2022/06/26 08:09:59;;;;;;;5.20;2.90;;;27.30;1.00;;;;;;5154552;27;20502;-55
2022/06/26 08:12:25;;;;;;;4.05;2.50;;;27.30;1.00;;;;;;5156114;27;20466;-57
2022/06/26 08:14:51;;;;;;;6.82;2.90;;;27.30;1.00;;;;;;5154210;27;20378;-57
2022/06/26 08:17:16;;;;;;;4.55;2.65;;;27.50;1.00;;;;;;5155723;27;20034;-57
2022/06/26 08:19:42;;;;;;;6.00;2.83;;;27.30;1.00;;;;;;5155221;27;20053;-55
2022/06/26 08:22:08;;;;;;;3.92;2.30;;;27.30;1.00;;;;;;5147449;27;20044;-55
2022/06/26 08:24:36;;;;;;;3.55;2.70;;;27.60;1.00;;;;;;5155388;27;20468;-55
2022/06/26 08:27:02;;;;;;;6.72;2.50;;;27.50;1.00;;;;;;5147989;27;20364;-55
2022/06/26 08:29:28;;;;;;;7.05;2.97;;;27.50;1.00;;;;;;5155802;27;20388;-56
2022/06/26 08:31:54;;;;;;;4.18;3.13;;;27.70;1.00;;;;;;5154493;27;20033;-54
2022/06/26 08:34:20;;;;;;;3.60;2.80;;;27.70;1.00;;;;;;5155123;27;20023;-54
2022/06/26 08:36:46;;;;;;;5.82;2.60;;;27.70;1.00;;;;;;5154039;27;20110;-55
2022/06/26 08:39:12;;;;;;;3.03;2.80;;;27.60;1.00;;;;;;5155120;27;20391;-55
2022/06/26 08:41:42;;;;;;;3.25;2.28;;;27.70;1.00;;;;;;5152784;27;20030;-54
2022/06/26 08:44:09;;;;;;;5.05;3.08;;;27.90;1.00;;;;;;5154867;27;20039;-53
2022/06/26 08:46:38;;;;;;;6.95;2.42;;;27.90;1.00;;;;;;5151859;27;20456;-56
2022/06/26 08:49:15;;;;;;;6.07;2.67;;;28.00;1.00;;;;;;5154824;27;20091;-55
2022/06/26 08:51:44;;;;;;;5.05;2.55;;;28.00;1.00;;;;;;5152833;27;20015;-55
2022/06/26 08:54:12;;;;;;;5.57;2.78;;;28.00;1.00;;;;;;5155053;27;20029;-55
2022/06/26 08:56:42;;;;;;;7.13;3.00;;;28.00;1.00;;;;;;5153910;27;20062;-56
2022/06/26 08:59:09;;;;;;;2.60;2.40;;;28.10;1.00;;;;;;5154566;27;20515;-53
2022/06/26 09:01:39;;;;;;;3.92;2.35;;;28.50;1.00;;;;;;5145265;27;20023;-56
2022/06/26 09:04:05;;;;;;;4.47;2.60;;;28.90;1.00;;;;;;5133973;27;20031;-54
2022/06/26 09:06:37;;;;;;;2.90;2.17;;;29.00;1.00;;;;;;5141954;27;20034;-56
2022/06/26 09:09:24;;;;;;;2.50;2.30;;;29.10;1.00;;;;;;5154544;27;20087;-54
2022/06/26 09:11:53;;;;;;;4.72;2.70;;;28.80;1.00;;;;;;5143953;27;20085;-56
2022/06/26 09:14:20;;;;;;;4.00;2.47;;;28.60;1.00;;;;;;5153440;27;20026;-55
2022/06/26 09:16:47;;;;;;;5.72;2.72;;;28.80;1.00;;;;;;5153063;27;20031;-53
2022/06/26 09:19:20;;;;;;;2.45;2.00;;;28.70;1.00;;;;;;5153963;27;20057;-53
2022/06/26 09:21:50;;;;;;;2.57;2.20;;;28.70;1.00;;;;;;5153460;27;20047;-53
2022/06/26 09:24:21;;;;;;;4.38;2.10;;;29.00;1.00;;;;;;5154558;27;20260;-56
2022/06/26 09:27:06;;;;;;;2.90;2.08;;;29.00;1.00;;;;;;5153111;27;20487;-56
2022/06/26 09:29:32;;;;;;;2.78;2.20;;;29.00;1.00;;;;;;5154457;27;20380;-54
2022/06/26 09:32:07;;;;;;;7.57;2.67;;;29.20;1.00;;;;;;5153154;27;20019;-54
2022/06/26 09:34:33;;;;;;;5.55;2.97;;;29.80;1.00;;;;;;5154108;27;20027;-55
2022/06/26 09:37:01;;;;;;;3.22;2.13;;;29.90;1.00;;;;;;5151965;27;20101;-56
2022/06/26 09:39:30;;;;;;;4.03;2.38;;;29.90;1.00;;;;;;5153134;27;20503;-54
2022/06/26 09:41:56;;;;;;;4.43;2.60;;;29.90;1.00;;;;;;5152988;27;20037;-57
2022/06/26 09:44:22;;;;;;;2.58;2.38;;;30.20;1.00;;;;;;5152527;27;20023;-55
2022/06/26 09:46:49;;;;;;;5.75;2.42;;;30.60;1.00;;;;;;5152992;27;20031;-55
2022/06/26 09:49:16;;;;;;;4.32;2.58;;;30.10;1.00;;;;;;5152646;27;20027;-56
2022/06/26 09:51:43;;;;;;;5.38;2.65;;;29.70;1.00;;;;;;5151919;27;20027;-56
2022/06/26 09:54:09;;;;;;;4.72;2.58;;;30.10;1.00;;;;;;5153341;27;20026;-54
2022/06/26 09:56:34;;;;;;;3.50;2.45;;;30.00;1.00;;;;;;5140397;27;20521;-55
2022/06/26 09:59:00;;;;;;;3.75;2.58;;;30.10;1.00;;;;;;5153812;27;20054;-56
2022/06/26 10:07:00;;;;;;;3.15;2.47;;;30.00;1.00;;;;;;5137865;27;20144;-55
2022/06/26 10:09:27;;;;;;;5.88;2.30;;;29.90;1.00;;;;;;5152670;27;20129;-55
2022/06/26 10:11:56;;;;;;;6.13;4.45;;;29.90;1.00;;;;;;5152433;27;20043;-56
2022/06/26 10:14:22;;;;;;;5.03;3.28;;;30.10;1.00;;;;;;5153260;27;20023;-56
2022/06/26 10:17:00;;;;;;;3.22;2.63;;;30.40;1.00;;;;;;5152331;27;20027;-53
2022/06/26 10:19:41;;;;;;;4.82;2.58;;;30.50;1.00;;;;;;5148860;27;20035;-56
2022/06/26 10:22:07;;;;;;;5.60;3.28;;;30.40;1.00;;;;;;5152298;27;20097;-56
2022/06/26 10:24:33;;;;;;;5.80;3.33;;;30.60;1.00;;;;;;5146456;27;20392;-57
2022/06/26 10:27:01;;;;;;;3.53;2.60;;;30.90;1.00;;;;;;5152065;27;20023;-56
2022/06/26 10:29:38;;;;;;;5.65;2.70;;;30.70;1.00;;;;;;5152674;27;20051;-56
2022/06/26 10:32:06;;;;;;;5.22;2.70;;;30.60;1.00;;;;;;5152104;27;20034;-54
2022/06/26 10:34:32;;;;;;;4.82;3.08;;;30.30;1.00;;;;;;5151617;27;20019;-53
2022/06/26 10:37:00;;;;;;;2.92;2.30;;;30.70;1.00;;;;;;5152425;27;20103;-57
2022/06/26 10:39:56;;;;;;;3.75;2.78;;;31.00;1.00;;;;;;5152888;27;20023;-55
2022/06/26 10:45:18;;;;;;;4.82;2.78;;;31.30;1.00;;;;;;5153576;27;20076;-55
2022/06/26 10:47:53;;;;;;;6.05;2.35;;;31.30;1.00;;;;;;5152239;27;20026;-57
2022/06/26 10:50:33;;;;;;;3.00;2.63;;;31.50;1.00;;;;;;5153081;27;20022;-55
2022/06/26 10:53:19;;;;;;;4.70;2.80;;;31.50;1.00;;;;;;5142273;27;20043;-56
2022/06/26 10:55:49;;;;;;;7.18;3.72;;;31.50;1.00;;;;;;5153456;27;20034;-57
2022/06/26 10:58:41;;;;;;;4.82;3.50;;;31.60;1.00;;;;;;5152195;27;20472;-56
2022/06/26 11:01:09;;;;;;;5.15;3.13;;;31.80;1.00;;;;;;5153094;27;20510;-56
2022/06/26 11:03:36;;;;;;;5.70;2.97;;;31.50;1.00;;;;;;5136522;27;20341;-56
2022/06/26 11:06:08;;;;;;;4.68;3.08;;;31.80;1.00;;;;;;5133252;27;20020;-57
2022/06/26 11:08:37;;;;;;;5.68;3.05;;;32.00;1.00;;;;;;5136274;27;20084;-57
2022/06/26 11:11:06;;;;;;;6.03;3.00;;;32.10;1.00;;;;;;5135778;27;20047;-56
2022/06/26 11:13:33;;;;;;;5.25;2.85;;;32.30;1.00;;;;;;5151007;27;20038;-57
2022/06/26 11:16:00;;;;;;;4.43;2.90;;;32.20;1.00;;;;;;5156892;27;20392;-57
2022/06/26 11:18:25;;;;;;;7.22;3.70;;;32.10;1.00;;;;;;5155926;27;20038;-55
2022/06/26 11:20:54;;;;;;;6.32;3.42;;;32.10;1.00;;;;;;5155259;27;20030;-56
2022/06/26 11:23:24;;;;;;;3.63;3.30;;;33.00;1.00;;;;;;5151078;27;20029;-56
2022/06/26 11:25:54;;;;;;;4.93;3.60;;;35.50;1.00;;;;;;5150407;27;20031;-57
2022/06/26 11:28:20;;;;;;;6.95;3.35;;;36.10;1.00;;;;;;5148617;27;20038;-54
2022/06/26 11:30:47;;;;;;;8.65;3.90;;;36.20;1.00;;;;;;5156588;27;20019;-60
2022/06/26 11:33:21;;;;;;;4.57;3.50;;;36.60;1.00;;;;;;5155177;27;20027;-60
2022/06/26 11:35:46;;;;;;;7.13;3.75;;;37.00;1.00;;;;;;5156082;27;20027;-60
2022/06/26 11:38:14;;;;;;;5.03;3.50;;;36.70;1.00;;;;;;5155390;27;20053;-60
2022/06/26 11:40:44;;;;;;;4.25;3.70;;;36.00;1.00;;;;;;5143794;27;20027;-60
2022/06/26 11:43:12;;;;;;;5.32;3.38;;;35.30;1.00;;;;;;5144775;27;20033;-60
2022/06/26 11:45:40;;;;;;;8.20;3.55;;;35.10;1.00;;;;;;5154737;27;20026;-60
2022/06/26 11:48:08;;;;;;;5.22;3.75;;;35.50;1.00;;;;;;5143941;27;20031;-60
2022/06/26 11:50:36;;;;;;;4.15;3.70;;;35.80;1.00;;;;;;5138900;27;20101;-60
2022/06/26 11:53:04;;;;;;;6.82;3.80;;;36.50;1.00;;;;;;5149871;27;20401;-60
2022/06/26 11:55:31;;;;;;;6.50;4.20;;;37.00;1.00;;;;;;5139035;27;20049;-60
2022/06/26 11:58:00;;;;;;;5.30;3.85;;;37.30;1.00;;;;;;5133999;27;20019;-59
2022/06/26 12:00:25;;;;;;;5.10;4.32;;;37.40;1.00;;;;;;5139500;27;20042;-60
2022/06/26 12:02:52;;;;;;;7.93;4.57;;;37.60;1.00;;;;;;5154220;27;20464;-59
2022/06/26 12:05:22;;;;;;;10.23;4.63;;;38.10;1.00;;;;;;5153932;27;20113;-59
2022/06/26 12:07:50;;;;;;;7.05;5.25;;;37.70;1.00;;;;;;5152492;27;20038;-59
2022/06/26 12:10:34;;;;;;;11.73;7.38;;;37.40;1.00;;;;;;5154312;27;20118;-59
2022/06/26 12:13:00;;;;;;;;;;;37.90;1.00;;;;;;5132657;27;20056;-59
2022/06/26 12:15:29;;;;;;;6.43;4.90;;;37.30;1.00;;;;;;5133436;27;19904;-60
2022/06/26 12:17:57;;;;;;;9.02;6.65;;;37.80;1.00;;;;;;5153532;27;20023;-59
2022/06/26 12:20:23;;;;;;;6.28;4.70;;;36.90;1.00;;;;;;5134108;27;20114;-59
2022/06/26 12:22:52;;;;;;;15.80;8.77;;;37.00;1.00;;;;;;5151144;27;20095;-59
2022/06/26 12:25:31;;;;;;;9.27;7.10;;;36.70;1.00;;;;;;5154044;27;20051;-59
2022/06/26 12:27:58;;;;;;;6.22;5.55;;;36.80;1.00;;;;;;5139051;27;20115;-59
2022/06/26 12:30:35;;;;;;;17.40;9.98;;;36.20;1.00;;;;;;5133264;27;20034;-59
2022/06/26 12:33:04;;;;;;;7.40;5.47;;;36.00;1.00;;;;;;5147479;27;20429;-59
2022/06/26 12:35:31;;;;;;;6.35;5.50;;;36.20;1.00;;;;;;5153742;27;20033;-59
2022/06/26 12:37:58;;;;;;;7.05;5.82;;;36.50;1.00;;;;;;5152657;27;20396;-60
2022/06/26 12:40:24;;;;;;;15.15;7.68;;;37.20;1.00;;;;;;5153766;27;20488;-60
2022/06/26 12:42:50;;;;;;;6.03;5.43;;;37.60;1.00;;;;;;5143987;27;20114;-60
2022/06/26 12:45:15;;;;;;;9.38;6.72;;;38.50;1.00;;;;;;5133253;27;20031;-60
2022/06/26 12:47:41;;;;;;;10.18;7.10;;;39.10;1.00;;;;;;5144201;27;20042;-60
2022/06/26 12:50:08;;;;;;;7.18;4.90;;;39.40;1.00;;;;;;5155166;27;20476;-60
2022/06/26 12:52:34;;;;;;;9.20;5.90;;;39.70;1.00;;;;;;5153909;27;20034;-60
2022/06/26 12:55:05;;;;;;;6.05;5.47;;;39.30;1.00;;;;;;5153975;27;20042;-60
2022/06/26 12:57:30;;;;;;;9.15;5.88;;;40.50;1.00;;;;;;5153803;27;20063;-60
2022/06/26 12:59:56;;;;;;;8.65;6.45;;;38.60;1.00;;;;;;5154589;27;20122;-60
2022/06/26 13:02:22;;;;;;;9.20;5.55;;;40.70;1.00;;;;;;5153637;27;20022;-60
2022/06/26 13:04:48;;;;;;;5.47;5.03;;;40.80;1.00;;;;;;5154790;27;20023;-60
2022/06/26 13:07:13;;;;;;;6.93;5.30;;;40.00;1.00;;;;;;5141111;27;20038;-60
2022/06/26 13:09:39;;;;;;;9.20;5.55;;;39.30;1.00;;;;;;5154451;27;20019;-60
2022/06/26 13:12:05;;;;;;;9.32;5.65;;;38.50;1.00;;;;;;5148266;27;20047;-59
2022/06/26 13:14:31;;;;;;;6.22;5.75;;;38.40;1.00;;;;;;5133891;27;20015;-59
2022/06/26 13:16:57;;;;;;;7.60;5.70;;;37.90;1.00;;;;;;5133591;27;20164;-59
2022/06/26 13:19:22;;;;;;;7.30;5.60;;;37.90;1.00;;;;;;5133634;27;20137;-59